Time;durP1;ratioP1;P1;durP2;ratioP2;P2;SDS_P1;SDS_P2;PMS_P1;PMS_P2;Temp;Humidity;BMP_temperature;BMP_pressure;BME280_temperature;BME280_humidity;BME280_pressure;Samples;Min_cycle;Max_cycle;Signal;HPM_P1;HPM_P2
2022/04/29 00:00:46;;;;;;;16.20;7.93;;;;;;;9.58;70.33;102919.28;4986749;28;20125;-77
2022/04/29 00:03:12;;;;;;;14.15;7.90;;;;;;;9.59;70.20;102922.78;4966521;28;20379;-77
2022/04/29 00:05:42;;;;;;;14.18;8.10;;;;;;;9.54;70.35;102917.69;4972481;28;20027;-77
2022/04/29 00:08:08;;;;;;;18.63;7.97;;;;;;;9.54;70.20;102917.69;4969759;28;20019;-77
2022/04/29 00:10:35;;;;;;;13.52;7.90;;;;;;;9.51;70.80;102917.78;4972086;28;20031;-77
2022/04/29 00:13:01;;;;;;;14.85;7.53;;;;;;;9.52;70.03;102908.16;4971411;28;20045;-78
2022/04/29 00:15:28;;;;;;;15.70;7.55;;;;;;;9.50;70.34;102905.56;5002442;28;20403;-78
2022/04/29 00:17:53;;;;;;;11.77;7.63;;;;;;;9.51;70.70;102909.06;4971462;28;20038;-77
2022/04/29 00:20:19;;;;;;;15.32;8.02;;;;;;;9.50;70.35;102907.34;4963319;28;20031;-77
2022/04/29 00:22:44;;;;;;;19.85;7.95;;;;;;;9.48;70.57;102903.91;4971320;28;20114;-77
2022/04/29 00:25:11;;;;;;;14.57;8.02;;;;;;;9.48;70.62;102909.16;4986534;28;20066;-77
2022/04/29 00:27:38;;;;;;;14.55;7.90;;;;;;;9.47;70.43;102915.34;4970365;28;20031;-77
2022/04/29 00:30:05;;;;;;;12.27;7.75;;;;;;;9.46;71.13;102914.47;4970229;28;20454;-75
2022/04/29 00:32:30;;;;;;;11.40;7.63;;;;;;;9.43;70.89;102901.47;4971514;28;20034;-78
2022/04/29 00:34:56;;;;;;;15.93;8.20;;;;;;;9.42;70.97;102903.22;4968991;28;20037;-75
2022/04/29 00:37:21;;;;;;;14.75;7.95;;;;;;;9.40;71.14;102902.44;4985358;28;20045;-75
2022/04/29 00:39:47;;;;;;;15.05;7.97;;;;;;;9.36;70.86;102903.44;4971140;28;20431;-76
2022/04/29 00:42:17;;;;;;;13.75;8.32;;;;;;;9.31;71.06;102897.50;4971758;28;20030;-76
2022/04/29 00:44:44;;;;;;;11.80;8.27;;;;;;;9.33;71.28;102906.19;4971343;28;20123;-75
2022/04/29 00:47:16;;;;;;;16.67;8.63;;;;;;;9.29;71.29;102901.09;4970159;28;20026;-77
2022/04/29 00:49:42;;;;;;;12.43;7.88;;;;;;;9.24;71.58;102890.75;4970756;28;20077;-77
2022/04/29 00:52:11;;;;;;;14.07;8.23;;;;;;;9.23;71.13;102894.31;4964246;28;20038;-78
2022/04/29 00:54:38;;;;;;;14.25;8.40;;;;;;;9.23;71.15;102889.06;4973445;28;20107;-78
2022/04/29 00:57:11;;;;;;;14.60;8.00;;;;;;;9.20;71.32;102891.75;4972329;28;20062;-77
2022/04/29 00:59:46;;;;;;;16.67;8.45;;;;;;;9.19;71.21;102895.28;4971927;28;20522;-78
2022/04/29 01:02:13;;;;;;;14.15;8.23;;;;;;;9.14;71.59;102891.97;5002741;28;20035;-77
2022/04/29 01:04:59;;;;;;;16.02;8.05;;;;;;;9.12;71.32;102891.19;4969473;28;21697;-77
2022/04/29 01:07:27;;;;;;;12.55;8.30;;;;;;;9.07;71.94;102895.72;4971988;28;20031;-78
2022/04/29 01:09:53;;;;;;;16.20;9.57;;;;;;;9.05;71.55;102893.16;4962368;28;20379;-76
2022/04/29 01:12:18;;;;;;;15.02;7.72;;;;;;;9.00;71.57;102894.25;4970574;28;20053;-77
2022/04/29 01:14:44;;;;;;;14.20;8.25;;;;;;;9.02;71.56;102887.16;4970787;28;20157;-78
2022/04/29 01:17:09;;;;;;;9.57;7.50;;;;;;;8.98;71.32;102883.78;4969282;28;20030;-78
2022/04/29 01:19:37;;;;;;;15.07;8.18;;;;;;;8.97;71.33;102882.06;4970141;28;20108;-78
2022/04/29 01:22:03;;;;;;;15.45;8.13;;;;;;;8.96;71.13;102871.63;4970191;28;20026;-77
2022/04/29 01:24:28;;;;;;;13.50;8.45;;;;;;;8.91;71.51;102868.31;4970229;28;20034;-76
2022/04/29 01:26:54;;;;;;;15.00;7.95;;;;;;;8.90;71.29;102869.22;4978724;28;20035;-77
2022/04/29 01:29:21;;;;;;;16.42;7.95;;;;;;;8.86;71.49;102865.00;4969660;28;20042;-77
2022/04/29 01:31:48;;;;;;;16.27;8.30;;;;;;;8.82;71.30;102858.13;4970360;28;20027;-77
2022/04/29 01:34:13;;;;;;;13.60;8.70;;;;;;;8.76;71.54;102853.91;4968474;28;20505;-77
2022/04/29 01:36:41;;;;;;;15.57;8.45;;;;;;;8.75;71.94;102857.47;4970627;28;20022;-77
2022/04/29 01:39:06;;;;;;;16.23;7.72;;;;;;;8.74;71.45;102851.34;4969998;28;20031;-77
2022/04/29 01:41:34;;;;;;;17.38;8.20;;;;;;;8.73;71.68;102854.88;4969030;28;20081;-77
2022/04/29 01:43:59;;;;;;;14.43;8.55;;;;;;;8.67;72.21;102855.09;4961233;28;20053;-77
2022/04/29 01:46:24;;;;;;;13.27;8.30;;;;;;;8.67;71.71;102849.84;4983245;28;20110;-78
2022/04/29 01:48:50;;;;;;;14.93;8.65;;;;;;;8.67;71.78;102855.09;4984751;28;20023;-78
2022/04/29 01:51:15;;;;;;;16.45;8.70;;;;;;;8.64;71.66;102847.34;4970072;28;20034;-78
2022/04/29 01:53:41;;;;;;;14.65;8.15;;;;;;;8.64;72.26;102847.34;4984428;28;20031;-75
2022/04/29 01:56:06;;;;;;;14.13;8.35;;;;;;;8.61;72.22;102851.81;4968890;28;20031;-79
2022/04/29 01:58:32;;;;;;;16.40;8.40;;;;;;;8.58;72.24;102852.78;4970418;28;20023;-78
2022/04/29 02:00:57;;;;;;;12.65;8.63;;;;;;;8.55;72.15;102850.28;4961364;28;20526;-77
2022/04/29 02:03:23;;;;;;;16.10;8.63;;;;;;;8.51;72.73;102847.81;4969233;28;20117;-78
2022/04/29 02:05:48;;;;;;;14.50;8.90;;;;;;;8.51;72.21;102848.66;4975402;28;20022;-77
2022/04/29 02:08:14;;;;;;;16.00;9.20;;;;;;;8.47;72.75;102847.06;4973100;28;20082;-77
2022/04/29 02:10:39;;;;;;;18.25;9.20;;;;;;;8.47;72.77;102847.06;4971940;28;20390;-77
2022/04/29 02:13:05;;;;;;;19.13;9.48;;;;;;;8.43;72.76;102845.44;4974282;28;20039;-77
2022/04/29 02:15:30;;;;;;;16.00;8.68;;;;;;;8.42;72.67;102856.84;5004177;28;20047;-79
2022/04/29 02:17:55;;;;;;;17.10;8.93;;;;;;;8.38;73.14;102852.56;4971019;28;20037;-77
2022/04/29 02:20:21;;;;;;;12.80;9.20;;;;;;;8.34;73.33;102846.56;4975821;28;20057;-77
2022/04/29 02:22:47;;;;;;;18.38;8.30;;;;;;;8.31;73.14;102849.25;4989964;28;20038;-78
2022/04/29 02:25:13;;;;;;;14.30;8.50;;;;;;;8.31;73.17;102845.78;4970081;28;20039;-77
2022/04/29 02:27:39;;;;;;;14.07;8.95;;;;;;;8.28;73.36;102841.50;4970869;28;20479;-78
2022/04/29 02:30:05;;;;;;;14.73;8.80;;;;;;;8.29;72.94;102842.34;4968059;28;20089;-77
2022/04/29 02:32:31;;;;;;;18.27;9.20;;;;;;;8.26;73.10;102847.69;4970189;28;20026;-76
2022/04/29 02:34:58;;;;;;;15.00;9.20;;;;;;;8.24;73.02;102839.03;4964516;28;20027;-77
2022/04/29 02:37:23;;;;;;;15.60;8.63;;;;;;;8.21;73.23;102839.13;4975676;28;20030;-77
2022/04/29 02:39:48;;;;;;;13.75;9.13;;;;;;;8.17;72.94;102833.97;4976973;28;20049;-77
2022/04/29 02:42:14;;;;;;;17.27;9.65;;;;;;;8.18;73.17;102842.72;4971170;28;20121;-77
2022/04/29 02:44:39;;;;;;;11.75;8.85;;;;;;;8.17;73.11;102833.13;4988514;28;20561;-77
2022/04/29 02:47:07;;;;;;;13.63;9.70;;;;;;;8.14;73.28;102841.09;5005573;28;20077;-77
2022/04/29 02:49:48;;;;;;;14.02;9.35;;;;;;;8.10;73.27;102842.94;5003142;28;20031;-77
2022/04/29 02:52:13;;;;;;;15.85;9.88;;;;;;;8.07;73.71;102845.69;4972222;28;20034;-77
2022/04/29 02:54:40;;;;;;;16.80;9.00;;;;;;;8.06;73.53;102841.34;5005021;28;20030;-77
2022/04/29 02:57:06;;;;;;;14.82;9.45;;;;;;;8.04;73.71;102840.53;4972722;28;20035;-77
2022/04/29 02:59:31;;;;;;;19.48;10.10;;;;;;;7.99;73.89;102837.16;4973447;28;20042;-77
2022/04/29 03:01:58;;;;;;;18.58;9.50;;;;;;;8.00;74.02;102831.00;4973399;28;20052;-76
2022/04/29 03:04:23;;;;;;;13.52;9.32;;;;;;;7.99;73.65;102831.06;4972579;28;20042;-77
2022/04/29 03:06:48;;;;;;;13.18;9.85;;;;;;;7.97;74.27;102823.25;4966956;28;20498;-76
2022/04/29 03:09:14;;;;;;;16.30;9.85;;;;;;;7.96;74.49;102823.31;4980353;28;20109;-77
2022/04/29 03:11:40;;;;;;;17.02;10.63;;;;;;;7.95;73.96;102817.19;4972944;28;20058;-77
2022/04/29 03:14:06;;;;;;;20.23;10.15;;;;;;;7.94;74.42;102815.50;4972390;28;20701;-77
2022/04/29 03:16:31;;;;;;;19.17;10.25;;;;;;;7.93;74.35;102805.06;4972332;28;20372;-77
2022/04/29 03:18:57;;;;;;;13.00;10.15;;;;;;;7.90;74.18;102798.16;4970727;28;20062;-77
2022/04/29 03:21:23;;;;;;;14.98;9.73;;;;;;;7.88;74.17;102792.09;4972782;28;20325;-78
2022/04/29 03:23:48;;;;;;;17.25;10.27;;;;;;;7.88;73.92;102804.34;4964017;28;20169;-77
2022/04/29 03:26:14;;;;;;;17.17;10.60;;;;;;;7.87;74.38;102813.97;4975985;28;20490;-76
2022/04/29 03:28:39;;;;;;;14.70;10.15;;;;;;;7.83;74.38;102812.34;4972354;28;20038;-78
2022/04/29 03:31:05;;;;;;;19.33;10.60;;;;;;;7.81;74.50;102820.25;4972567;28;20053;-78
2022/04/29 03:33:31;;;;;;;16.40;10.40;;;;;;;7.79;74.66;102826.47;4971729;28;20034;-77
2022/04/29 03:35:56;;;;;;;16.58;10.75;;;;;;;7.76;74.59;102822.16;4971903;28;20501;-76
2022/04/29 03:38:23;;;;;;;18.38;10.30;;;;;;;7.73;74.73;102834.50;4982175;28;20035;-77
2022/04/29 03:40:48;;;;;;;17.67;10.95;;;;;;;7.72;75.07;102831.03;5002480;28;20084;-77
2022/04/29 03:43:13;;;;;;;14.25;10.45;;;;;;;7.69;75.10;102835.50;4991240;28;20065;-77
2022/04/29 03:45:39;;;;;;;16.02;10.48;;;;;;;7.68;75.15;102823.31;4972051;28;20121;-78
2022/04/29 03:48:05;;;;;;;16.85;10.88;;;;;;;7.66;75.36;102814.63;4970108;28;20438;-77
2022/04/29 03:50:30;;;;;;;22.60;10.80;;;;;;;7.64;75.20;102812.06;4972243;28;20035;-77
2022/04/29 03:52:59;;;;;;;16.30;11.70;;;;;;;7.62;75.55;102818.25;4972490;28;20027;-77
2022/04/29 03:55:27;;;;;;;18.23;11.38;;;;;;;7.59;75.79;102820.94;4968076;28;20030;-78
2022/04/29 03:57:53;;;;;;;19.27;11.20;;;;;;;7.58;75.44;102822.69;4972318;28;20046;-77
2022/04/29 04:00:20;;;;;;;18.95;11.63;;;;;;;7.57;75.64;102822.75;4972231;28;20042;-78
2022/04/29 04:02:45;;;;;;;17.05;10.52;;;;;;;7.54;75.56;102819.31;4979318;28;20039;-78
2022/04/29 04:05:10;;;;;;;15.85;11.52;;;;;;;7.55;76.04;102818.41;4971405;28;20110;-77
2022/04/29 04:07:36;;;;;;;16.63;11.52;;;;;;;7.52;75.97;102822.88;4969875;28;20169;-78
2022/04/29 04:10:05;;;;;;;18.77;11.77;;;;;;;7.50;75.99;102815.06;4972622;28;20034;-77
2022/04/29 04:12:41;;;;;;;21.17;12.00;;;;;;;7.51;76.22;102821.16;4966769;28;20102;-77
2022/04/29 04:15:09;;;;;;;19.83;11.80;;;;;;;7.49;76.35;102821.22;4963135;28;20047;-77
2022/04/29 04:17:34;;;;;;;21.40;12.27;;;;;;;7.45;76.09;102816.13;4970882;28;20049;-78
2022/04/29 04:19:59;;;;;;;21.88;12.00;;;;;;;7.45;76.33;102806.50;4971547;28;20126;-77
2022/04/29 04:22:27;;;;;;;20.05;11.73;;;;;;;7.45;76.43;102803.88;4969612;28;20058;-78
2022/04/29 04:24:53;;;;;;;19.13;11.75;;;;;;;7.44;76.42;102804.78;4971648;28;20038;-76
2022/04/29 04:27:18;;;;;;;20.42;12.50;;;;;;;7.41;76.73;102799.63;4971415;28;20038;-76
2022/04/29 04:29:43;;;;;;;16.75;11.65;;;;;;;7.40;76.60;102802.31;4964781;28;20030;-76
2022/04/29 04:32:08;;;;;;;19.65;11.80;;;;;;;7.39;76.60;102804.06;4969507;28;20023;-76
2022/04/29 04:37:23;;;;;;;19.17;12.10;;;;;;;7.35;76.68;102805.06;4970140;28;20454;-77
2022/04/29 04:39:50;;;;;;;17.92;12.90;;;;;;;7.36;76.99;102804.16;4970629;28;20058;-77
2022/04/29 04:42:16;;;;;;;22.33;12.48;;;;;;;7.33;76.88;102796.41;4988777;28;20493;-77
2022/04/29 04:44:41;;;;;;;18.02;13.18;;;;;;;7.35;76.97;102799.81;4982397;28;20042;-78
2022/04/29 04:47:08;;;;;;;20.63;13.23;;;;;;;7.35;76.97;102799.81;4970297;28;20022;-77
2022/04/29 04:49:34;;;;;;;20.27;12.93;;;;;;;7.31;77.27;102797.34;4972726;28;20085;-77
2022/04/29 04:51:59;;;;;;;19.02;13.68;;;;;;;7.32;77.26;102799.91;4971434;28;20065;-77
2022/04/29 04:54:25;;;;;;;17.63;12.95;;;;;;;7.27;77.39;102791.34;4988060;28;20050;-76
2022/04/29 04:56:50;;;;;;;19.17;13.30;;;;;;;7.30;76.93;102791.25;4970216;28;20035;-77
2022/04/29 04:59:16;;;;;;;19.88;13.55;;;;;;;7.31;76.77;102792.97;4971297;28;20084;-77
2022/04/29 05:01:41;;;;;;;21.50;12.68;;;;;;;7.32;76.91;102797.28;4970279;28;20037;-77
2022/04/29 05:04:06;;;;;;;26.73;12.88;;;;;;;7.32;77.69;102792.06;4972029;28;20033;-77
2022/04/29 05:06:32;;;;;;;20.02;13.30;;;;;;;7.31;76.68;102787.72;4986063;28;20077;-77
2022/04/29 05:08:57;;;;;;;21.63;14.20;;;;;;;7.32;77.10;102794.69;4971518;28;20082;-77
2022/04/29 05:11:22;;;;;;;19.27;12.57;;;;;;;7.30;77.27;102796.50;4985120;28;20468;-77
2022/04/29 05:13:48;;;;;;;21.67;13.77;;;;;;;7.31;77.12;102798.19;4970864;28;20042;-76
2022/04/29 05:16:13;;;;;;;18.83;13.70;;;;;;;7.30;76.81;102801.72;4971264;28;20046;-77
2022/04/29 05:18:38;;;;;;;22.48;13.73;;;;;;;7.30;77.13;102790.38;4970626;28;20037;-77
2022/04/29 05:21:04;;;;;;;21.05;13.77;;;;;;;7.29;76.59;102800.00;4971067;28;20097;-78
2022/04/29 05:23:30;;;;;;;23.00;14.20;;;;;;;7.30;76.35;102801.72;4971153;28;20487;-77
2022/04/29 05:25:55;;;;;;;26.08;14.50;;;;;;;7.29;76.64;102805.25;4969620;28;20062;-77
2022/04/29 05:28:21;;;;;;;23.13;14.60;;;;;;;7.30;76.83;102806.97;4970759;28;20709;-78
2022/04/29 05:30:47;;;;;;;18.48;14.52;;;;;;;7.29;77.06;102810.47;4969997;28;20031;-76
2022/04/29 05:33:12;;;;;;;21.92;14.50;;;;;;;7.28;77.08;102802.66;4969819;28;20487;-77
2022/04/29 05:35:39;;;;;;;23.58;14.57;;;;;;;7.30;77.19;102800.88;4970590;28;20089;-77
2022/04/29 05:38:05;;;;;;;22.27;14.90;;;;;;;7.29;76.83;102800.00;4969876;28;20050;-77
2022/04/29 05:43:15;;;;;;;21.70;15.02;;;;;;;7.30;76.62;102801.72;4959679;28;20117;-77
2022/04/29 05:45:40;;;;;;;22.88;15.10;;;;;;;7.32;77.40;102810.38;4965401;28;20109;-75
2022/04/29 05:48:06;;;;;;;22.10;14.10;;;;;;;7.34;76.93;102808.59;4970208;28;20038;-77
2022/04/29 05:50:31;;;;;;;21.85;15.20;;;;;;;7.34;76.93;102807.72;4963804;28;20029;-77
2022/04/29 05:52:57;;;;;;;26.23;16.15;;;;;;;7.36;77.30;102817.25;4974659;28;20368;-77
2022/04/29 05:55:22;;;;;;;22.38;15.35;;;;;;;7.38;76.98;102814.59;4989580;28;20153;-77
2022/04/29 05:57:48;;;;;;;29.60;15.75;;;;;;;7.39;76.65;102818.91;4954309;28;20028;-77
2022/04/29 06:00:14;;;;;;;20.38;14.68;;;;;;;7.40;76.42;102824.13;4964181;28;20106;-77
2022/04/29 06:02:40;;;;;;;23.77;15.40;;;;;;;7.39;76.36;102827.63;4966226;28;20023;-77
2022/04/29 06:05:06;;;;;;;26.30;15.52;;;;;;;7.40;76.46;102823.25;4968045;28;20031;-78
2022/04/29 06:07:31;;;;;;;22.83;15.02;;;;;;;7.40;76.24;102818.88;4984233;28;20402;-76
2022/04/29 06:09:57;;;;;;;27.17;16.00;;;;;;;7.43;76.71;102825.78;4969407;28;20039;-77
2022/04/29 06:12:23;;;;;;;25.70;15.05;;;;;;;7.44;76.74;102820.50;4963667;28;20026;-77
2022/04/29 06:14:48;;;;;;;22.85;15.10;;;;;;;7.47;76.60;102819.56;4985595;28;20049;-78
2022/04/29 06:17:13;;;;;;;25.67;15.20;;;;;;;7.49;76.22;102826.47;4970487;28;20081;-78
2022/04/29 06:19:39;;;;;;;26.20;15.90;;;;;;;7.51;76.03;102832.50;4976767;28;20034;-77
2022/04/29 06:22:05;;;;;;;31.00;15.80;;;;;;;7.50;76.41;102830.78;5006535;28;20506;-77
2022/04/29 06:24:34;;;;;;;26.00;15.52;;;;;;;7.51;76.32;102829.88;4973680;28;20034;-78
2022/04/29 06:27:01;;;;;;;20.50;15.50;;;;;;;7.53;76.61;102835.94;5005418;28;20146;-77
2022/04/29 06:29:26;;;;;;;23.77;15.85;;;;;;;7.55;76.55;102834.13;4973358;28;20033;-77
2022/04/29 06:31:51;;;;;;;24.35;15.57;;;;;;;7.58;76.24;102837.56;4974706;28;20030;-77
2022/04/29 06:34:17;;;;;;;24.58;15.63;;;;;;;7.63;76.17;102838.31;4989487;28;20042;-78
2022/04/29 06:36:42;;;;;;;20.95;15.02;;;;;;;7.66;76.28;102840.84;4990661;28;20027;-76
2022/04/29 06:39:08;;;;;;;24.25;15.57;;;;;;;7.68;76.04;102846.91;4988926;28;20027;-77
2022/04/29 06:41:36;;;;;;;23.35;16.50;;;;;;;7.67;76.31;102850.41;4974707;28;20084;-76
2022/04/29 06:44:03;;;;;;;25.95;15.73;;;;;;;7.72;76.53;102840.66;4973957;28;20027;-75
2022/04/29 06:46:29;;;;;;;25.40;15.77;;;;;;;7.74;76.38;102841.47;4973820;28;20101;-77
2022/04/29 06:48:55;;;;;;;24.23;17.13;;;;;;;7.76;76.03;102835.28;4972254;28;20169;-75
2022/04/29 06:51:25;;;;;;;25.35;16.23;;;;;;;7.80;76.18;102838.66;4988211;28;20478;-75
2022/04/29 06:53:51;;;;;;;26.98;16.30;;;;;;;7.81;75.90;102835.97;4973950;28;20027;-75
2022/04/29 06:56:16;;;;;;;25.65;15.98;;;;;;;7.88;76.16;102846.28;4970865;28;20165;-75
2022/04/29 06:58:41;;;;;;;26.80;16.05;;;;;;;7.90;75.67;102847.94;4974179;28;20113;-75
2022/04/29 07:01:07;;;;;;;28.60;16.30;;;;;;;7.93;75.63;102853.09;4973067;28;20386;-77
2022/04/29 07:03:32;;;;;;;23.08;15.77;;;;;;;7.91;75.31;102836.56;4988164;28;20045;-77
2022/04/29 07:06:00;;;;;;;26.58;16.17;;;;;;;8.02;75.46;102846.72;4972471;28;20046;-77
2022/04/29 07:08:26;;;;;;;22.70;15.45;;;;;;;8.08;75.70;102849.16;4971867;28;20081;-77
2022/04/29 07:10:51;;;;;;;26.02;15.90;;;;;;;8.14;75.05;102847.19;4998875;28;20019;-77
2022/04/29 07:13:17;;;;;;;27.52;16.92;;;;;;;8.17;75.24;102844.47;4967512;28;20031;-77
2022/04/29 07:15:44;;;;;;;24.90;17.00;;;;;;;8.20;75.24;102848.75;5004218;28;20503;-77
2022/04/29 07:18:12;;;;;;;22.02;17.00;;;;;;;8.26;75.03;102848.56;4970159;28;20031;-77
2022/04/29 07:20:38;;;;;;;25.08;16.90;;;;;;;8.33;75.07;102849.22;4987039;28;20123;-77
2022/04/29 07:23:04;;;;;;;29.17;17.75;;;;;;;8.39;75.80;102839.41;4973296;28;20035;-77
2022/04/29 07:25:29;;;;;;;24.92;16.58;;;;;;;8.46;75.58;102845.34;4970806;28;20085;-78
2022/04/29 07:27:54;;;;;;;28.13;17.48;;;;;;;8.55;75.16;102844.16;4972413;28;20022;-77
2022/04/29 07:30:19;;;;;;;29.23;17.45;;;;;;;8.62;74.76;102846.53;4971134;28;20039;-78
2022/04/29 07:32:45;;;;;;;28.60;18.25;;;;;;;8.73;74.96;102848.78;5002932;28;20097;-78
2022/04/29 07:43:21;;;;;;;28.73;17.50;;;;;;;9.04;73.48;102838.06;4972521;28;20519;-76
2022/04/29 07:45:49;;;;;;;27.60;18.13;;;;;;;9.13;73.27;102843.00;4986687;28;20105;-77
2022/04/29 07:48:14;;;;;;;28.05;17.20;;;;;;;9.18;74.79;102835.81;4972391;28;20031;-79
2022/04/29 07:50:40;;;;;;;26.67;18.20;;;;;;;9.26;74.22;102846.91;4972498;28;20035;-78
2022/04/29 07:53:06;;;;;;;29.27;16.75;;;;;;;9.35;73.68;102846.56;4969745;28;20030;-78
2022/04/29 07:55:31;;;;;;;25.85;17.08;;;;;;;9.46;73.07;102837.44;5003853;28;20027;-78
2022/04/29 07:57:57;;;;;;;26.30;17.77;;;;;;;9.52;72.87;102837.19;4972272;28;20034;-77
2022/04/29 08:00:22;;;;;;;27.27;17.63;;;;;;;9.60;72.78;102843.00;4971422;28;20085;-77
2022/04/29 08:02:48;;;;;;;27.85;18.25;;;;;;;9.62;72.62;102846.47;4967155;28;20031;-77
2022/04/29 08:05:13;;;;;;;29.70;17.25;;;;;;;9.71;72.11;102840.84;4972267;28;20132;-78
2022/04/29 08:07:40;;;;;;;24.80;16.52;;;;;;;9.78;71.89;102842.31;4986765;28;20058;-77
2022/04/29 08:10:06;;;;;;;31.15;17.83;;;;;;;9.83;71.16;102843.00;4963115;28;20084;-79
2022/04/29 08:12:32;;;;;;;30.52;18.42;;;;;;;9.88;71.28;102848.94;4971683;28;20038;-76
2022/04/29 08:14:58;;;;;;;29.05;17.88;;;;;;;9.98;71.13;102855.53;4969856;28;20117;-77
2022/04/29 08:17:25;;;;;;;27.00;17.60;;;;;;;10.03;71.62;102844.88;4971508;28;20035;-77
2022/04/29 08:19:51;;;;;;;33.72;17.10;;;;;;;10.18;71.83;102851.28;4971520;28;20391;-77
2022/04/29 08:22:17;;;;;;;26.52;16.60;;;;;;;10.17;70.57;102849.56;4970443;28;20031;-78
2022/04/29 08:24:43;;;;;;;26.25;17.05;;;;;;;10.21;70.91;102856.44;4971895;28;20475;-76
2022/04/29 08:27:09;;;;;;;26.42;17.60;;;;;;;10.31;70.58;102856.00;4969368;28;20033;-78
2022/04/29 08:29:34;;;;;;;25.20;16.58;;;;;;;10.37;70.22;102857.53;4971564;28;20058;-78
2022/04/29 08:32:00;;;;;;;37.72;17.75;;;;;;;10.39;70.02;102858.31;4971577;28;20030;-77
2022/04/29 08:34:26;;;;;;;27.05;16.92;;;;;;;10.37;69.90;102857.53;4969634;28;20117;-76
2022/04/29 08:36:51;;;;;;;24.58;17.20;;;;;;;10.42;69.67;102860.00;4972422;28;20512;-77
2022/04/29 08:39:17;;;;;;;28.95;16.58;;;;;;;10.43;69.37;102867.84;4972556;28;20030;-77
2022/04/29 08:41:43;;;;;;;29.02;16.40;;;;;;;10.52;69.65;102861.31;4970512;28;20352;-77
2022/04/29 08:44:11;;;;;;;28.45;16.70;;;;;;;10.50;69.26;102861.38;4971790;28;20050;-76
2022/04/29 08:46:45;;;;;;;22.63;16.70;;;;;;;10.59;69.31;102852.25;4973824;28;20041;-77
2022/04/29 08:49:11;;;;;;;24.63;16.05;;;;;;;10.64;69.25;102859.03;4971986;28;20031;-77
2022/04/29 08:51:40;;;;;;;28.20;17.45;;;;;;;10.70;69.53;102857.06;4986571;28;20514;-78
2022/04/29 08:54:05;;;;;;;28.73;16.40;;;;;;;10.74;68.62;102851.59;4971778;28;20030;-77
2022/04/29 08:59:18;;;;;;;35.45;17.75;;;;;;;10.83;68.96;102838.06;4969427;28;20046;-77
2022/04/29 09:01:44;;;;;;;25.83;16.98;;;;;;;10.89;68.91;102822.00;4954588;28;20027;-78
2022/04/29 09:04:10;;;;;;;32.55;17.67;;;;;;;10.92;67.90;102826.25;4966763;28;20042;-78
2022/04/29 09:06:48;;;;;;;27.50;17.50;;;;;;;11.01;68.60;102830.25;4970863;28;20394;-78
2022/04/29 09:09:14;;;;;;;30.63;17.10;;;;;;;11.02;67.84;102846.00;4970268;28;20023;-78
2022/04/29 09:11:40;;;;;;;28.05;17.60;;;;;;;11.07;68.56;102848.44;4971100;28;20030;-78
2022/04/29 09:14:24;;;;;;;29.05;16.60;;;;;;;11.16;68.76;102850.66;4970944;28;20041;-78
2022/04/29 09:16:50;;;;;;;26.08;16.52;;;;;;;11.20;68.80;102845.19;4975143;28;20639;-78
2022/04/29 09:19:30;;;;;;;32.72;17.40;;;;;;;11.23;68.07;102845.06;4951653;28;20027;-79
2022/04/29 09:22:07;;;;;;;29.23;16.50;;;;;;;11.26;67.94;102844.94;4956503;28;20037;-76
2022/04/29 09:24:33;;;;;;;26.67;16.00;;;;;;;11.30;68.03;102851.78;4969426;28;20070;-77
2022/04/29 09:27:00;;;;;;;29.08;16.40;;;;;;;11.36;68.02;102855.03;4970464;28;20062;-77
2022/04/29 09:29:25;;;;;;;30.10;16.58;;;;;;;11.44;67.69;102850.28;4970306;28;20027;-77
2022/04/29 09:32:01;;;;;;;27.35;16.48;;;;;;;11.45;67.43;102859.91;4969728;28;20037;-76
2022/04/29 09:34:44;;;;;;;26.52;15.65;;;;;;;11.49;67.48;102856.19;4965908;28;20126;-79
2022/04/29 09:37:14;;;;;;;;;;;;;;;11.61;67.82;102861.78;4971202;28;20034;-79
2022/04/29 09:39:50;;;;;;;27.48;16.02;;;;;;;11.54;67.12;102857.69;4969822;28;19918;-79
2022/04/29 09:42:16;;;;;;;25.45;16.40;;;;;;;11.61;67.77;102855.66;4970268;28;20029;-78
2022/04/29 09:44:42;;;;;;;23.35;15.65;;;;;;;11.60;67.19;102849.50;4969951;28;20030;-79
2022/04/29 09:47:14;;;;;;;25.08;15.88;;;;;;;11.63;66.92;102851.16;5001599;28;20026;-78
2022/04/29 09:49:41;;;;;;;26.50;15.63;;;;;;;11.66;67.08;102856.28;4970473;28;20062;-78
2022/04/29 09:52:07;;;;;;;29.25;15.48;;;;;;;11.66;67.01;102848.38;4966794;28;20025;-78
2022/04/29 09:54:37;;;;;;;30.00;15.85;;;;;;;11.66;66.80;102845.75;4975623;28;20486;-77
2022/04/29 09:57:12;;;;;;;23.10;15.60;;;;;;;11.71;66.67;102843.75;4974984;28;20120;-77
2022/04/29 09:59:49;;;;;;;33.45;16.17;;;;;;;11.77;66.85;102843.47;4974227;28;20033;-78
2022/04/29 10:02:17;;;;;;;23.27;15.52;;;;;;;11.77;66.33;102834.69;4973698;28;20400;-78
2022/04/29 10:04:44;;;;;;;24.55;15.45;;;;;;;11.81;66.51;102834.50;4974160;28;20100;-78
2022/04/29 10:07:13;;;;;;;25.88;16.00;;;;;;;11.84;65.94;102839.63;4972740;28;20085;-78
2022/04/29 10:09:40;;;;;;;25.48;15.32;;;;;;;11.80;65.86;102839.84;4966766;28;20022;-78
2022/04/29 10:12:17;;;;;;;23.98;16.13;;;;;;;11.86;66.91;102840.41;4974231;28;20539;-78
2022/04/29 10:14:44;;;;;;;27.38;15.05;;;;;;;11.85;66.53;102833.44;4973830;28;20098;-78
2022/04/29 10:23:07;;;;;;;24.77;15.05;;;;;;;11.82;66.93;102828.31;4974192;28;20580;-78
2022/04/29 10:25:34;;;;;;;26.85;15.93;;;;;;;11.78;66.62;102818.81;4973242;28;20038;-78
2022/04/29 10:28:00;;;;;;;33.47;16.35;;;;;;;11.80;67.56;102819.59;4970661;28;20084;-78
2022/04/29 10:30:31;;;;;;;30.85;15.40;;;;;;;11.89;66.56;102824.44;4973923;28;20098;-77
2022/04/29 10:32:59;;;;;;;25.92;15.68;;;;;;;11.88;66.55;102828.00;4973491;28;20029;-77
2022/04/29 10:35:56;;;;;;;28.92;15.32;;;;;;;11.96;66.81;102819.72;4973094;28;20026;-77
2022/04/29 10:38:27;;;;;;;26.30;15.43;;;;;;;11.95;67.08;102823.28;4973064;28;20513;-78
2022/04/29 10:41:21;;;;;;;24.95;15.55;;;;;;;12.03;66.68;102820.31;4973026;28;20113;-77
2022/04/29 10:43:56;;;;;;;26.48;15.48;;;;;;;12.01;66.32;102819.50;4977163;28;20023;-77
2022/04/29 10:46:30;;;;;;;23.02;14.77;;;;;;;12.02;66.42;102815.97;4973189;28;20475;-78
2022/04/29 10:48:55;;;;;;;23.48;14.77;;;;;;;12.05;66.26;102807.88;4972764;28;20074;-79
2022/04/29 10:51:51;;;;;;;26.58;15.13;;;;;;;12.11;66.30;102816.34;4972994;28;20039;-78
2022/04/29 10:54:42;;;;;;;30.27;15.38;;;;;;;12.15;66.19;102817.91;4986268;28;20027;-78
2022/04/29 10:57:12;;;;;;;24.70;14.77;;;;;;;12.12;65.24;102811.94;4986924;28;20450;-78
2022/04/29 10:59:51;;;;;;;21.10;14.50;;;;;;;12.15;65.18;102811.78;4973270;28;20022;-78
2022/04/29 11:02:35;;;;;;;24.25;14.48;;;;;;;12.13;65.31;102805.72;4967623;28;20027;-78
2022/04/29 11:05:03;;;;;;;23.90;14.30;;;;;;;12.12;65.40;102804.00;4972596;28;20483;-80
2022/04/29 11:07:36;;;;;;;23.08;14.15;;;;;;;12.12;65.18;102799.59;4972582;28;20565;-78
2022/04/29 11:10:06;;;;;;;27.40;13.57;;;;;;;12.18;65.89;102803.72;4972288;28;20081;-78
2022/04/29 11:12:33;;;;;;;28.50;13.60;;;;;;;12.20;65.10;102800.06;4973179;28;20029;-78
2022/04/29 11:15:20;;;;;;;22.65;13.40;;;;;;;12.28;65.74;102798.81;4971458;28;20499;-78
2022/04/29 11:17:45;;;;;;;30.45;14.20;;;;;;;12.19;65.43;102797.50;4994416;28;20053;-78
2022/04/29 11:20:22;;;;;;;25.02;14.15;;;;;;;12.23;65.91;102796.41;4969257;28;20063;-78
2022/04/29 11:26:00;;;;;;;25.65;13.88;;;;;;;12.36;66.24;102801.94;4965883;28;20116;-78
2022/04/29 11:28:27;;;;;;;27.42;13.80;;;;;;;12.36;65.45;102800.13;5004073;28;20045;-78
2022/04/29 11:31:01;;;;;;;24.73;13.25;;;;;;;12.48;65.52;102801.31;4972523;28;20122;-78
2022/04/29 11:33:26;;;;;;;25.10;14.05;;;;;;;12.48;65.70;102786.34;4972745;28;20035;-78
2022/04/29 11:36:05;;;;;;;25.73;13.60;;;;;;;12.60;65.39;102789.28;4969374;28;20033;-78
2022/04/29 11:38:38;;;;;;;20.77;13.40;;;;;;;12.64;64.73;102788.19;4970911;28;20030;-78
2022/04/29 11:41:04;;;;;;;18.70;12.48;;;;;;;12.74;65.05;102784.13;4972300;28;20035;-78
2022/04/29 11:43:30;;;;;;;20.42;12.77;;;;;;;12.78;64.07;102788.31;5004097;28;20049;-78